Portland International Jetport Airport Portland US
ICAO: KPWM
IATA: PWM
Category: Large
Scheduled Services: Yes

Elevation: 76 ft
TransAlt. 18000 ft.

Airport Communications:
APP/DEP:119.75
ATIS:119.05
CLNC DEL:121.9
CTAF:120.9
GND:121.9
TWR:120.9
UNICOM:122.95

KPWM Zoom In..

If you have problems with the map follow the link
https://www.worldairports.se/pages/airport.php?
ICAO=KPWM

Runways:

(A) RW 11 length 7199 ft width 150 ft
ILS 109.90 / hdg 112

(B) RW 18 length 6100 ft width 150 ft
---- / hdg 180

(C) RW 29 length 7199 ft width 150 ft
ILS 109.90 / hdg 292

(D) RW 36 length 6100 ft width 150 ft
---- / hdg 360

Location; KPWM
Day. 14 / Time. 05.51 Zulu
* Altimeter: 30.14
* Temperature: 03° c. 37.4°f.
* Wind from: 300° Speed 05 kn.
Dewpoint: 01° c.
Visibility: 4 Statute Miles.
Clouds: Overcast 300 ft.
Conditions: Light Rain.Conditions: Mist.

KPWM 140551Z AUTO 30005KT 4SM -RA BR OVC003 03/01 A3014 RMK AO2 SLP209 P0011 60043 T00280011 10033 20028 56039


Wind From 300°
Speed 05 kn.

 
 
jpsmedia worldairports.se 2019   terms of use